sensor_id;sensor_type;location;lat;lon;timestamp;P1;durP1;ratioP1;P2;durP2;ratioP2
78406;SDS011;67692;51.074;-1.790;2023-02-08T15:49:55;14.73;;;5.80;;
78406;SDS011;67692;51.074;-1.790;2023-02-08T15:52:23;17.67;;;6.43;;
78406;SDS011;67692;51.074;-1.790;2023-02-08T15:54:53;16.17;;;5.70;;
78406;SDS011;67692;51.074;-1.790;2023-02-08T15:57:26;13.23;;;5.85;;
78406;SDS011;67692;51.074;-1.790;2023-02-08T15:59:59;15.43;;;5.80;;
78406;SDS011;67692;51.074;-1.790;2023-02-08T16:02:28;13.80;;;5.65;;
78406;SDS011;67692;51.074;-1.790;2023-02-08T16:04:59;13.18;;;5.57;;
78406;SDS011;67692;51.074;-1.790;2023-02-08T16:07:27;13.10;;;5.78;;
78406;SDS011;67692;51.074;-1.790;2023-02-08T16:09:58;15.38;;;5.40;;
78406;SDS011;67692;51.074;-1.790;2023-02-08T16:12:27;19.77;;;6.57;;
78406;SDS011;67692;51.074;-1.790;2023-02-08T16:14:54;20.33;;;5.72;;
78406;SDS011;67692;51.074;-1.790;2023-02-08T16:17:30;17.70;;;5.43;;
78406;SDS011;67692;51.074;-1.790;2023-02-08T16:20:20;13.70;;;5.10;;
78406;SDS011;67692;51.074;-1.790;2023-02-08T16:22:55;13.23;;;4.60;;
78406;SDS011;67692;51.074;-1.790;2023-02-08T16:25:29;11.32;;;4.57;;
78406;SDS011;67692;51.074;-1.790;2023-02-08T16:28:01;13.48;;;4.72;;
78406;SDS011;67692;51.074;-1.790;2023-02-08T16:32:56;14.80;;;4.93;;
78406;SDS011;67692;51.074;-1.790;2023-02-08T16:35:30;14.05;;;4.65;;
78406;SDS011;67692;51.074;-1.790;2023-02-08T16:37:58;17.27;;;4.88;;
78406;SDS011;67692;51.074;-1.790;2023-02-08T16:40:40;16.52;;;5.28;;
78406;SDS011;67692;51.074;-1.790;2023-02-08T16:43:21;14.23;;;5.05;;
78406;SDS011;67692;51.074;-1.790;2023-02-08T16:48:43;11.98;;;5.82;;
78406;SDS011;67692;51.074;-1.790;2023-02-08T16:51:14;15.10;;;5.32;;
78406;SDS011;67692;51.074;-1.790;2023-02-08T16:53:43;10.93;;;4.03;;
78406;SDS011;67692;51.074;-1.790;2023-02-08T16:56:11;11.75;;;5.30;;
78406;SDS011;67692;51.074;-1.790;2023-02-08T16:58:39;11.20;;;5.18;;
78406;SDS011;67692;51.074;-1.790;2023-02-08T17:01:08;15.25;;;4.82;;
78406;SDS011;67692;51.074;-1.790;2023-02-08T17:03:36;14.75;;;5.10;;
78406;SDS011;67692;51.074;-1.790;2023-02-08T17:06:03;13.60;;;5.80;;
78406;SDS011;67692;51.074;-1.790;2023-02-08T17:08:30;14.13;;;5.15;;
78406;SDS011;67692;51.074;-1.790;2023-02-08T17:10:59;16.13;;;5.68;;
78406;SDS011;67692;51.074;-1.790;2023-02-08T17:13:26;14.43;;;5.45;;
78406;SDS011;67692;51.074;-1.790;2023-02-08T17:15:56;12.02;;;4.68;;
78406;SDS011;67692;51.074;-1.790;2023-02-08T17:18:24;11.10;;;4.70;;
78406;SDS011;67692;51.074;-1.790;2023-02-08T17:20:51;9.18;;;4.05;;
78406;SDS011;67692;51.074;-1.790;2023-02-08T17:23:22;11.88;;;4.57;;
78406;SDS011;67692;51.074;-1.790;2023-02-08T17:25:48;10.48;;;4.13;;
78406;SDS011;67692;51.074;-1.790;2023-02-08T17:28:16;13.02;;;4.35;;
78406;SDS011;67692;51.074;-1.790;2023-02-08T17:30:45;9.27;;;3.60;;
78406;SDS011;67692;51.074;-1.790;2023-02-08T17:33:14;9.55;;;3.80;;
78406;SDS011;67692;51.074;-1.790;2023-02-08T17:35:43;11.07;;;4.28;;
78406;SDS011;67692;51.074;-1.790;2023-02-08T17:38:11;9.88;;;3.83;;
78406;SDS011;67692;51.074;-1.790;2023-02-08T17:40:39;8.55;;;4.00;;
78406;SDS011;67692;51.074;-1.790;2023-02-08T17:43:07;10.40;;;3.40;;
78406;SDS011;67692;51.074;-1.790;2023-02-08T17:45:35;9.73;;;3.88;;
78406;SDS011;67692;51.074;-1.790;2023-02-08T17:48:03;7.57;;;3.30;;
78406;SDS011;67692;51.074;-1.790;2023-02-08T17:50:32;8.80;;;3.42;;
78406;SDS011;67692;51.074;-1.790;2023-02-08T17:52:59;9.23;;;3.72;;
78406;SDS011;67692;51.074;-1.790;2023-02-08T17:55:26;7.47;;;3.28;;
78406;SDS011;67692;51.074;-1.790;2023-02-08T17:57:52;9.02;;;3.83;;
78406;SDS011;67692;51.074;-1.790;2023-02-08T18:00:20;11.23;;;4.00;;
78406;SDS011;67692;51.074;-1.790;2023-02-08T18:02:49;9.63;;;3.45;;
78406;SDS011;67692;51.074;-1.790;2023-02-08T18:05:18;9.60;;;3.72;;
78406;SDS011;67692;51.074;-1.790;2023-02-08T18:07:47;9.70;;;3.53;;
78406;SDS011;67692;51.074;-1.790;2023-02-08T18:10:15;11.95;;;3.83;;
78406;SDS011;67692;51.074;-1.790;2023-02-08T18:15:12;7.03;;;3.35;;
78406;SDS011;67692;51.074;-1.790;2023-02-08T18:17:43;9.65;;;3.72;;
78406;SDS011;67692;51.074;-1.790;2023-02-08T18:20:11;11.90;;;4.18;;
78406;SDS011;67692;51.074;-1.790;2023-02-08T18:22:39;10.07;;;3.40;;
78406;SDS011;67692;51.074;-1.790;2023-02-08T18:25:08;8.60;;;4.20;;
78406;SDS011;67692;51.074;-1.790;2023-02-08T18:27:36;12.43;;;4.55;;
78406;SDS011;67692;51.074;-1.790;2023-02-08T18:30:03;11.05;;;4.03;;
78406;SDS011;67692;51.074;-1.790;2023-02-08T18:32:30;16.00;;;4.32;;
78406;SDS011;67692;51.074;-1.790;2023-02-08T18:34:58;11.30;;;4.82;;
78406;SDS011;67692;51.074;-1.790;2023-02-08T18:37:24;13.57;;;5.93;;
78406;SDS011;67692;51.074;-1.790;2023-02-08T18:39:52;17.30;;;4.55;;
78406;SDS011;67692;51.074;-1.790;2023-02-08T18:42:20;12.32;;;4.88;;
78406;SDS011;67692;51.074;-1.790;2023-02-08T18:44:49;8.80;;;4.07;;
78406;SDS011;67692;51.074;-1.790;2023-02-08T18:47:16;10.68;;;4.72;;
78406;SDS011;67692;51.074;-1.790;2023-02-08T18:49:43;9.88;;;4.13;;
78406;SDS011;67692;51.074;-1.790;2023-02-08T18:52:12;8.35;;;4.28;;
78406;SDS011;67692;51.074;-1.790;2023-02-08T18:54:40;9.52;;;4.55;;
78406;SDS011;67692;51.074;-1.790;2023-02-08T18:57:06;17.30;;;5.07;;
78406;SDS011;67692;51.074;-1.790;2023-02-08T18:59:36;10.20;;;4.90;;
78406;SDS011;67692;51.074;-1.790;2023-02-08T19:02:03;17.60;;;5.80;;
78406;SDS011;67692;51.074;-1.790;2023-02-08T19:04:34;11.50;;;4.28;;
78406;SDS011;67692;51.074;-1.790;2023-02-08T19:07:01;11.95;;;4.60;;
78406;SDS011;67692;51.074;-1.790;2023-02-08T19:09:28;12.70;;;4.80;;
78406;SDS011;67692;51.074;-1.790;2023-02-08T19:11:55;10.88;;;4.90;;
78406;SDS011;67692;51.074;-1.790;2023-02-08T19:14:21;9.63;;;4.15;;
78406;SDS011;67692;51.074;-1.790;2023-02-08T19:16:49;12.02;;;4.45;;
78406;SDS011;67692;51.074;-1.790;2023-02-08T19:19:16;12.38;;;4.95;;
78406;SDS011;67692;51.074;-1.790;2023-02-08T19:21:42;9.82;;;4.57;;
78406;SDS011;67692;51.074;-1.790;2023-02-08T19:24:10;10.18;;;4.43;;
78406;SDS011;67692;51.074;-1.790;2023-02-08T19:26:38;10.93;;;4.57;;
78406;SDS011;67692;51.074;-1.790;2023-02-08T19:29:06;10.95;;;5.13;;
78406;SDS011;67692;51.074;-1.790;2023-02-08T19:31:34;10.70;;;4.68;;
78406;SDS011;67692;51.074;-1.790;2023-02-08T19:34:02;9.23;;;4.80;;
78406;SDS011;67692;51.074;-1.790;2023-02-08T19:36:30;11.70;;;4.90;;
78406;SDS011;67692;51.074;-1.790;2023-02-08T19:38:58;11.95;;;5.18;;
78406;SDS011;67692;51.074;-1.790;2023-02-08T19:41:27;12.35;;;4.95;;
78406;SDS011;67692;51.074;-1.790;2023-02-08T19:46:22;12.57;;;5.10;;
78406;SDS011;67692;51.074;-1.790;2023-02-08T19:48:52;11.88;;;5.32;;
78406;SDS011;67692;51.074;-1.790;2023-02-08T19:51:20;10.07;;;5.00;;
78406;SDS011;67692;51.074;-1.790;2023-02-08T19:53:47;10.70;;;5.28;;
78406;SDS011;67692;51.074;-1.790;2023-02-08T19:56:14;11.60;;;5.45;;
78406;SDS011;67692;51.074;-1.790;2023-02-08T19:58:42;12.85;;;5.53;;
78406;SDS011;67692;51.074;-1.790;2023-02-08T20:01:11;11.23;;;5.53;;
78406;SDS011;67692;51.074;-1.790;2023-02-08T20:03:40;13.10;;;5.55;;
78406;SDS011;67692;51.074;-1.790;2023-02-08T20:06:11;10.43;;;5.03;;
78406;SDS011;67692;51.074;-1.790;2023-02-08T20:08:40;11.98;;;5.45;;
78406;SDS011;67692;51.074;-1.790;2023-02-08T20:11:14;11.93;;;6.43;;
78406;SDS011;67692;51.074;-1.790;2023-02-08T20:13:42;12.23;;;5.03;;
78406;SDS011;67692;51.074;-1.790;2023-02-08T20:16:09;9.82;;;5.03;;
78406;SDS011;67692;51.074;-1.790;2023-02-08T20:18:36;12.50;;;5.97;;
78406;SDS011;67692;51.074;-1.790;2023-02-08T20:21:03;12.57;;;5.40;;
78406;SDS011;67692;51.074;-1.790;2023-02-08T20:23:30;11.45;;;5.28;;
78406;SDS011;67692;51.074;-1.790;2023-02-08T20:26:06;11.10;;;5.80;;
78406;SDS011;67692;51.074;-1.790;2023-02-08T20:28:34;13.82;;;5.45;;
78406;SDS011;67692;51.074;-1.790;2023-02-08T20:31:04;12.88;;;5.70;;
78406;SDS011;67692;51.074;-1.790;2023-02-08T20:33:31;14.13;;;6.28;;
78406;SDS011;67692;51.074;-1.790;2023-02-08T20:36:03;12.15;;;5.95;;
78406;SDS011;67692;51.074;-1.790;2023-02-08T20:38:31;14.13;;;5.88;;
78406;SDS011;67692;51.074;-1.790;2023-02-08T20:41:00;13.00;;;6.00;;
78406;SDS011;67692;51.074;-1.790;2023-02-08T20:43:28;10.48;;;5.15;;
78406;SDS011;67692;51.074;-1.790;2023-02-08T20:45:54;11.85;;;5.60;;
78406;SDS011;67692;51.074;-1.790;2023-02-08T20:48:21;11.07;;;5.82;;
78406;SDS011;67692;51.074;-1.790;2023-02-08T20:50:48;13.20;;;5.53;;
78406;SDS011;67692;51.074;-1.790;2023-02-08T20:53:14;13.25;;;5.82;;
78406;SDS011;67692;51.074;-1.790;2023-02-08T20:55:41;14.70;;;7.18;;
78406;SDS011;67692;51.074;-1.790;2023-02-08T20:58:08;11.82;;;6.32;;
78406;SDS011;67692;51.074;-1.790;2023-02-08T21:00:36;12.18;;;6.22;;
78406;SDS011;67692;51.074;-1.790;2023-02-08T21:03:03;13.80;;;6.90;;
78406;SDS011;67692;51.074;-1.790;2023-02-08T21:05:30;13.35;;;6.68;;
78406;SDS011;67692;51.074;-1.790;2023-02-08T21:07:56;13.73;;;6.22;;
78406;SDS011;67692;51.074;-1.790;2023-02-08T21:10:24;11.85;;;6.80;;
78406;SDS011;67692;51.074;-1.790;2023-02-08T21:12:51;14.60;;;6.45;;
78406;SDS011;67692;51.074;-1.790;2023-02-08T21:15:18;14.30;;;6.63;;
78406;SDS011;67692;51.074;-1.790;2023-02-08T21:17:46;19.17;;;6.57;;
78406;SDS011;67692;51.074;-1.790;2023-02-08T21:20:12;19.20;;;7.65;;
78406;SDS011;67692;51.074;-1.790;2023-02-08T21:22:39;15.43;;;7.35;;
78406;SDS011;67692;51.074;-1.790;2023-02-08T21:25:06;13.60;;;7.22;;
78406;SDS011;67692;51.074;-1.790;2023-02-08T21:27:33;19.63;;;8.77;;
78406;SDS011;67692;51.074;-1.790;2023-02-08T21:30:00;18.27;;;7.82;;
78406;SDS011;67692;51.074;-1.790;2023-02-08T21:32:27;15.60;;;7.57;;
78406;SDS011;67692;51.074;-1.790;2023-02-08T21:34:58;18.05;;;7.30;;
78406;SDS011;67692;51.074;-1.790;2023-02-08T21:37:25;16.38;;;7.47;;
78406;SDS011;67692;51.074;-1.790;2023-02-08T21:39:52;18.58;;;8.00;;
78406;SDS011;67692;51.074;-1.790;2023-02-08T21:42:19;15.35;;;7.85;;
78406;SDS011;67692;51.074;-1.790;2023-02-08T21:44:46;16.75;;;7.97;;
78406;SDS011;67692;51.074;-1.790;2023-02-08T21:47:12;17.55;;;7.30;;
78406;SDS011;67692;51.074;-1.790;2023-02-08T21:49:39;16.60;;;8.02;;
78406;SDS011;67692;51.074;-1.790;2023-02-08T21:52:25;17.13;;;7.18;;
78406;SDS011;67692;51.074;-1.790;2023-02-08T21:55:08;14.25;;;6.88;;
78406;SDS011;67692;51.074;-1.790;2023-02-08T21:57:35;15.32;;;7.47;;
78406;SDS011;67692;51.074;-1.790;2023-02-08T22:00:05;15.25;;;7.25;;
78406;SDS011;67692;51.074;-1.790;2023-02-08T22:02:34;14.68;;;7.43;;
78406;SDS011;67692;51.074;-1.790;2023-02-08T22:05:01;14.75;;;7.05;;
78406;SDS011;67692;51.074;-1.790;2023-02-08T22:07:37;17.40;;;7.40;;
78406;SDS011;67692;51.074;-1.790;2023-02-08T22:10:05;16.83;;;7.47;;
78406;SDS011;67692;51.074;-1.790;2023-02-08T22:12:33;15.00;;;7.28;;
78406;SDS011;67692;51.074;-1.790;2023-02-08T22:14:59;13.93;;;6.63;;
78406;SDS011;67692;51.074;-1.790;2023-02-08T22:17:26;15.73;;;7.35;;
78406;SDS011;67692;51.074;-1.790;2023-02-08T22:19:53;17.80;;;7.20;;
78406;SDS011;67692;51.074;-1.790;2023-02-08T22:22:19;14.77;;;6.72;;
78406;SDS011;67692;51.074;-1.790;2023-02-08T22:24:47;14.88;;;6.63;;
78406;SDS011;67692;51.074;-1.790;2023-02-08T22:27:14;17.33;;;7.57;;
78406;SDS011;67692;51.074;-1.790;2023-02-08T22:29:40;14.57;;;7.00;;
78406;SDS011;67692;51.074;-1.790;2023-02-08T22:32:07;15.07;;;7.35;;
78406;SDS011;67692;51.074;-1.790;2023-02-08T22:34:35;14.00;;;6.63;;
78406;SDS011;67692;51.074;-1.790;2023-02-08T22:37:02;15.35;;;7.43;;
78406;SDS011;67692;51.074;-1.790;2023-02-08T22:39:30;15.30;;;7.05;;
78406;SDS011;67692;51.074;-1.790;2023-02-08T22:41:59;15.68;;;7.68;;
78406;SDS011;67692;51.074;-1.790;2023-02-08T22:44:27;15.52;;;7.47;;
78406;SDS011;67692;51.074;-1.790;2023-02-08T22:46:54;13.93;;;7.72;;
78406;SDS011;67692;51.074;-1.790;2023-02-08T22:49:21;13.63;;;6.90;;
78406;SDS011;67692;51.074;-1.790;2023-02-08T22:51:48;15.32;;;7.50;;
78406;SDS011;67692;51.074;-1.790;2023-02-08T22:54:14;15.32;;;6.82;;
78406;SDS011;67692;51.074;-1.790;2023-02-08T22:56:41;13.82;;;7.03;;
78406;SDS011;67692;51.074;-1.790;2023-02-08T22:59:09;15.13;;;7.07;;
78406;SDS011;67692;51.074;-1.790;2023-02-08T23:01:35;15.18;;;8.15;;
78406;SDS011;67692;51.074;-1.790;2023-02-08T23:04:02;18.10;;;7.97;;
78406;SDS011;67692;51.074;-1.790;2023-02-08T23:06:29;19.00;;;7.97;;
78406;SDS011;67692;51.074;-1.790;2023-02-08T23:08:56;18.13;;;8.25;;
78406;SDS011;67692;51.074;-1.790;2023-02-08T23:11:23;16.08;;;8.57;;
78406;SDS011;67692;51.074;-1.790;2023-02-08T23:13:50;16.30;;;7.88;;
78406;SDS011;67692;51.074;-1.790;2023-02-08T23:16:18;16.05;;;7.75;;
78406;SDS011;67692;51.074;-1.790;2023-02-08T23:18:45;14.55;;;7.25;;
78406;SDS011;67692;51.074;-1.790;2023-02-08T23:21:13;15.27;;;7.32;;
78406;SDS011;67692;51.074;-1.790;2023-02-08T23:23:42;18.80;;;7.78;;
78406;SDS011;67692;51.074;-1.790;2023-02-08T23:26:10;16.35;;;7.38;;
78406;SDS011;67692;51.074;-1.790;2023-02-08T23:28:38;16.13;;;8.07;;
78406;SDS011;67692;51.074;-1.790;2023-02-08T23:31:05;16.42;;;7.18;;
78406;SDS011;67692;51.074;-1.790;2023-02-08T23:33:34;14.50;;;7.13;;
78406;SDS011;67692;51.074;-1.790;2023-02-08T23:36:03;15.95;;;7.20;;
78406;SDS011;67692;51.074;-1.790;2023-02-08T23:38:30;16.02;;;7.47;;
78406;SDS011;67692;51.074;-1.790;2023-02-08T23:41:00;16.38;;;7.15;;
78406;SDS011;67692;51.074;-1.790;2023-02-08T23:43:27;15.77;;;7.22;;
78406;SDS011;67692;51.074;-1.790;2023-02-08T23:45:54;15.75;;;8.02;;
78406;SDS011;67692;51.074;-1.790;2023-02-08T23:48:21;17.35;;;7.53;;
78406;SDS011;67692;51.074;-1.790;2023-02-08T23:50:56;15.85;;;7.40;;
78406;SDS011;67692;51.074;-1.790;2023-02-08T23:53:23;15.55;;;7.15;;
78406;SDS011;67692;51.074;-1.790;2023-02-08T23:56:00;14.57;;;6.47;;
78406;SDS011;67692;51.074;-1.790;2023-02-08T23:58:29;13.60;;;6.82;;
